Time;durP1;ratioP1;P1;durP2;ratioP2;P2;SDS_P1;SDS_P2;PMS_P1;PMS_P2;Temp;Humidity;BMP_temperature;BMP_pressure;BME280_temperature;BME280_humidity;BME280_pressure;Samples;Min_cycle;Max_cycle;Signal;HPM_P1;HPM_P2
2022/06/24 00:00:05;;;;;;;4.07;2.72;;;21.20;73.40;;;;;;5069340;28;20048;-75
2022/06/24 00:02:31;;;;;;;5.93;2.72;;;21.10;73.00;;;;;;5067092;28;20071;-75
2022/06/24 00:04:57;;;;;;;2.97;2.30;;;21.00;73.80;;;;;;5066906;28;20040;-75
2022/06/24 00:07:23;;;;;;;4.30;2.55;;;21.00;74.50;;;;;;5052640;28;20430;-74
2022/06/24 00:09:49;;;;;;;3.30;2.38;;;20.90;75.60;;;;;;5067686;28;20432;-75
2022/06/24 00:12:17;;;;;;;3.70;2.35;;;20.80;75.90;;;;;;5070412;28;20036;-74
2022/06/24 00:14:48;;;;;;;3.30;2.70;;;20.70;75.80;;;;;;5070666;28;20043;-75
2022/06/24 00:17:14;;;;;;;5.18;2.33;;;20.70;75.70;;;;;;5063469;28;20045;-74
2022/06/24 00:19:59;;;;;;;2.63;2.42;;;20.60;75.60;;;;;;5068625;28;20056;-76
2022/06/24 00:22:28;;;;;;;3.17;2.40;;;20.60;78.20;;;;;;5069823;28;20048;-76
2022/06/24 00:25:16;;;;;;;2.72;2.47;;;20.50;78.10;;;;;;5066724;28;20036;-76
2022/06/24 00:27:43;;;;;;;3.15;2.85;;;20.50;78.70;;;;;;5067787;28;20153;-76
2022/06/24 00:30:14;;;;;;;4.82;2.80;;;20.40;79.40;;;;;;5068424;28;20418;-76
2022/06/24 00:32:41;;;;;;;3.42;2.70;;;20.40;80.40;;;;;;5069689;28;20033;-75
2022/06/24 00:35:16;;;;;;;2.78;2.55;;;20.20;80.30;;;;;;5036953;28;20078;-76
2022/06/24 00:37:43;;;;;;;3.90;2.50;;;20.20;81.80;;;;;;5051918;28;20037;-76
2022/06/24 00:40:09;;;;;;;3.50;2.80;;;20.20;82.00;;;;;;5061624;28;20056;-76
2022/06/24 00:42:37;;;;;;;3.15;2.78;;;20.10;82.40;;;;;;5067231;28;20043;-75
2022/06/24 00:45:24;;;;;;;2.80;2.60;;;19.90;82.60;;;;;;5069374;28;20517;-75
2022/06/24 00:47:51;;;;;;;3.13;2.83;;;19.90;83.90;;;;;;5068858;28;20193;-76
2022/06/24 00:50:25;;;;;;;4.15;2.63;;;19.90;84.40;;;;;;5071909;28;20079;-75
2022/06/24 00:52:53;;;;;;;4.28;2.80;;;19.90;85.50;;;;;;5075083;28;20048;-75
2022/06/24 00:55:20;;;;;;;3.25;2.50;;;19.70;84.40;;;;;;5083156;28;20044;-76
2022/06/24 00:57:46;;;;;;;2.90;2.70;;;19.60;83.40;;;;;;5076377;28;20398;-76
2022/06/24 01:00:13;;;;;;;3.92;2.35;;;19.50;83.00;;;;;;5072952;28;20040;-76
2022/06/24 01:02:40;;;;;;;2.40;2.20;;;19.50;83.40;;;;;;5076177;28;20066;-75
2022/06/24 01:05:07;;;;;;;5.30;2.58;;;19.40;84.10;;;;;;5076474;28;20493;-76
2022/06/24 01:07:40;;;;;;;3.22;2.60;;;19.30;85.80;;;;;;5076530;28;20040;-76
2022/06/24 01:10:08;;;;;;;4.13;2.83;;;19.10;89.30;;;;;;5076036;28;20044;-75
2022/06/24 01:12:34;;;;;;;3.00;2.58;;;18.90;90.40;;;;;;5076545;28;20067;-76
2022/06/24 01:15:02;;;;;;;3.72;3.00;;;18.80;91.00;;;;;;5076352;28;20028;-75
2022/06/24 01:17:28;;;;;;;3.42;3.00;;;18.70;91.20;;;;;;5075377;28;20126;-75
2022/06/24 01:20:10;;;;;;;5.45;2.70;;;18.60;91.50;;;;;;5064501;28;20048;-76
2022/06/24 01:22:37;;;;;;;3.00;2.80;;;18.60;92.40;;;;;;5057871;28;20041;-75
2022/06/24 01:25:03;;;;;;;3.30;3.00;;;18.60;92.30;;;;;;5072090;28;20044;-75
2022/06/24 01:27:28;;;;;;;3.30;3.10;;;18.60;92.90;;;;;;5074256;28;20084;-76
2022/06/24 01:29:54;;;;;;;3.63;3.00;;;18.70;93.20;;;;;;5076211;28;20040;-76
2022/06/24 01:32:20;;;;;;;4.30;2.72;;;18.60;93.50;;;;;;5074256;28;20040;-76
2022/06/24 01:34:46;;;;;;;3.05;2.85;;;18.70;94.20;;;;;;5058647;28;20036;-76
2022/06/24 01:37:11;;;;;;;3.33;2.90;;;18.70;94.70;;;;;;5074719;28;20162;-76
2022/06/24 01:39:38;;;;;;;3.25;2.78;;;18.70;95.00;;;;;;5075488;28;20407;-75
2022/06/24 01:42:03;;;;;;;3.45;3.15;;;18.60;95.40;;;;;;5060312;28;20051;-78
2022/06/24 01:44:29;;;;;;;3.40;2.83;;;18.60;95.60;;;;;;5059658;28;20040;-78
2022/06/24 01:46:55;;;;;;;3.67;3.33;;;18.60;95.40;;;;;;5076486;28;20451;-78
2022/06/24 01:49:20;;;;;;;4.55;2.85;;;18.60;95.90;;;;;;5074116;28;20385;-78
2022/06/24 01:51:49;;;;;;;4.45;2.97;;;18.60;96.20;;;;;;5076921;28;20094;-78
2022/06/24 01:54:14;;;;;;;4.13;2.88;;;18.60;96.30;;;;;;5060746;28;20433;-77
2022/06/24 01:56:40;;;;;;;3.33;2.90;;;18.60;96.60;;;;;;5074946;28;20037;-78
2022/06/24 01:59:06;;;;;;;3.70;2.67;;;18.50;97.10;;;;;;5076061;28;20091;-78
2022/06/24 02:01:31;;;;;;;5.70;2.95;;;18.40;97.40;;;;;;5073692;28;20048;-78
2022/06/24 02:03:57;;;;;;;3.25;2.92;;;18.40;97.60;;;;;;5073585;28;20040;-78
2022/06/24 02:06:23;;;;;;;3.40;3.10;;;18.40;97.30;;;;;;5072253;28;20083;-77
2022/06/24 02:08:49;;;;;;;3.70;3.25;;;18.40;97.70;;;;;;5073424;28;20040;-78
2022/06/24 02:14:03;;;;;;;3.88;2.88;;;18.30;98.00;;;;;;5072615;28;20044;-77
2022/06/24 02:16:29;;;;;;;5.47;3.33;;;18.30;98.10;;;;;;5073832;28;20041;-78
2022/06/24 02:18:55;;;;;;;3.85;3.17;;;18.30;98.10;;;;;;5055582;28;20078;-78
2022/06/24 02:21:22;;;;;;;4.00;3.17;;;18.20;98.20;;;;;;5073002;28;20036;-78
2022/06/24 02:23:48;;;;;;;6.57;3.20;;;18.20;98.40;;;;;;5071922;28;20047;-78
2022/06/24 02:26:14;;;;;;;3.30;3.10;;;18.10;98.80;;;;;;5072926;28;20044;-78
2022/06/24 02:28:39;;;;;;;4.53;3.40;;;18.00;99.20;;;;;;5071726;28;20037;-78
2022/06/24 02:31:05;;;;;;;3.92;3.60;;;17.90;99.90;;;;;;5072638;28;20043;-78
2022/06/24 02:33:31;;;;;;;4.05;3.75;;;17.90;99.90;;;;;;5074292;28;20052;-78
2022/06/24 02:35:57;;;;;;;4.40;3.28;;;17.70;99.90;;;;;;5073338;28;20036;-78
2022/06/24 02:38:23;;;;;;;5.72;3.65;;;17.70;99.90;;;;;;5076044;28;20044;-78
2022/06/24 02:40:48;;;;;;;5.65;3.40;;;17.60;99.90;;;;;;5058925;28;20044;-78
2022/06/24 02:43:20;;;;;;;4.55;3.20;;;17.70;99.90;;;;;;5094780;28;20508;-78
2022/06/24 02:45:51;;;;;;;3.50;3.20;;;17.60;99.90;;;;;;5076073;28;20051;-78
2022/06/24 02:48:19;;;;;;;3.70;3.28;;;17.60;99.90;;;;;;5063674;28;20395;-78
2022/06/24 02:50:49;;;;;;;3.55;3.25;;;17.50;99.90;;;;;;5059377;28;20061;-78
2022/06/24 02:53:16;;;;;;;3.95;3.60;;;17.60;99.90;;;;;;5074593;28;20599;-78
2022/06/24 02:55:47;;;;;;;4.10;3.70;;;17.60;99.90;;;;;;5074977;28;20040;-78
2022/06/24 02:58:13;;;;;;;6.55;3.78;;;17.70;99.90;;;;;;5076268;28;20044;-78
2022/06/24 03:00:42;;;;;;;4.88;3.67;;;17.70;99.90;;;;;;5076034;28;20371;-78
2022/06/24 03:03:09;;;;;;;4.03;3.63;;;17.80;99.90;;;;;;5074550;28;20044;-78
2022/06/24 03:05:35;;;;;;;4.75;3.30;;;17.90;99.90;;;;;;5074683;28;20040;-78
2022/06/24 03:08:01;;;;;;;3.40;3.10;;;17.90;99.90;;;;;;5074314;28;20123;-78
2022/06/24 03:10:26;;;;;;;4.97;3.85;;;17.90;99.90;;;;;;5074682;28;20043;-78
2022/06/24 03:12:52;;;;;;;4.10;3.80;;;18.00;99.90;;;;;;5074402;28;22046;-78
2022/06/24 03:15:18;;;;;;;4.05;3.75;;;18.10;99.90;;;;;;5075110;28;20044;-78
2022/06/24 03:17:43;;;;;;;4.05;3.60;;;18.20;99.90;;;;;;5076406;28;20050;-78
2022/06/24 03:20:10;;;;;;;6.45;3.88;;;18.30;99.90;;;;;;5056016;28;20043;-78
2022/06/24 03:22:36;;;;;;;4.53;4.10;;;18.30;99.90;;;;;;5056282;28;20040;-78
2022/06/24 03:25:03;;;;;;;6.18;4.43;;;18.40;99.90;;;;;;5060306;28;20119;-78
2022/06/24 03:27:29;;;;;;;4.82;3.90;;;18.40;99.50;;;;;;5075175;28;20043;-78
2022/06/24 03:29:55;;;;;;;6.30;4.32;;;18.50;99.70;;;;;;5073808;28;20062;-78
2022/06/24 03:32:20;;;;;;;4.50;4.10;;;18.50;98.10;;;;;;5074316;28;20063;-78
2022/06/24 03:34:46;;;;;;;5.28;3.78;;;18.70;98.20;;;;;;5075763;28;20032;-78
2022/06/24 03:37:11;;;;;;;5.22;4.22;;;18.70;98.50;;;;;;5075789;28;20062;-78
2022/06/24 03:39:37;;;;;;;5.28;3.63;;;18.70;97.80;;;;;;5072108;28;20062;-78
2022/06/24 03:42:04;;;;;;;4.40;4.00;;;18.80;98.90;;;;;;5072127;28;20486;-78
2022/06/24 03:44:29;;;;;;;4.43;4.03;;;18.80;99.40;;;;;;5072023;28;20036;-78
2022/06/24 03:46:55;;;;;;;4.32;3.75;;;18.80;99.30;;;;;;5069231;28;20040;-78
2022/06/24 03:49:21;;;;;;;4.70;3.83;;;18.90;98.90;;;;;;5070996;28;20040;-78
2022/06/24 03:51:47;;;;;;;8.65;4.00;;;18.90;98.50;;;;;;5073636;28;20120;-78
2022/06/24 03:54:12;;;;;;;4.35;3.67;;;19.00;97.80;;;;;;5072983;28;20095;-78
2022/06/24 03:56:38;;;;;;;4.38;3.90;;;19.10;97.50;;;;;;5071799;28;20090;-78
2022/06/24 03:59:04;;;;;;;5.50;3.70;;;19.10;97.70;;;;;;5071380;28;20047;-78
2022/06/24 04:01:30;;;;;;;3.80;3.40;;;19.20;99.30;;;;;;5055440;28;20386;-78
2022/06/24 04:03:55;;;;;;;4.30;3.55;;;19.20;99.50;;;;;;5068666;28;20513;-78
2022/06/24 04:06:21;;;;;;;6.30;4.03;;;19.30;99.90;;;;;;5071137;28;20048;-78
2022/06/24 04:08:47;;;;;;;4.38;3.70;;;19.30;98.60;;;;;;5071163;28;20036;-78
2022/06/24 04:11:14;;;;;;;5.35;3.50;;;19.40;98.90;;;;;;5071326;28;20037;-78
2022/06/24 04:13:39;;;;;;;5.38;3.50;;;19.40;99.00;;;;;;5073849;28;20044;-78
2022/06/24 04:16:05;;;;;;;4.28;3.63;;;19.40;98.70;;;;;;5071196;28;20037;-78
2022/06/24 04:18:31;;;;;;;6.00;3.58;;;19.50;99.20;;;;;;5072066;28;20086;-78
2022/06/24 04:20:57;;;;;;;4.28;3.38;;;19.60;99.80;;;;;;5056280;28;20402;-78
2022/06/24 04:23:22;;;;;;;3.63;3.33;;;19.60;99.90;;;;;;5057818;28;20044;-78
2022/06/24 04:25:48;;;;;;;4.05;3.65;;;19.70;99.70;;;;;;5071337;28;20055;-78
2022/06/24 04:28:14;;;;;;;4.57;4.03;;;19.80;99.80;;;;;;5072859;28;20117;-78
2022/06/24 04:30:40;;;;;;;4.85;3.97;;;19.90;99.40;;;;;;5071708;28;20049;-78
2022/06/24 04:33:05;;;;;;;4.28;3.95;;;19.90;99.00;;;;;;5073788;28;20048;-78
2022/06/24 04:35:31;;;;;;;5.97;4.25;;;20.00;98.90;;;;;;5059582;28;20041;-78
2022/06/24 04:37:56;;;;;;;4.32;3.92;;;20.10;98.10;;;;;;5063077;28;20079;-78
2022/06/24 04:40:22;;;;;;;6.63;3.63;;;20.10;97.70;;;;;;5045319;28;20486;-78
2022/06/24 04:42:48;;;;;;;7.63;4.53;;;20.20;98.90;;;;;;5052773;28;20045;-78
2022/06/24 04:45:13;;;;;;;4.03;3.72;;;20.20;98.40;;;;;;5053075;28;20052;-78
2022/06/24 04:47:39;;;;;;;5.03;4.20;;;20.30;99.20;;;;;;5072472;28;20091;-78
2022/06/24 04:50:06;;;;;;;5.15;3.78;;;20.40;98.60;;;;;;5072400;28;20076;-78
2022/06/24 04:52:32;;;;;;;5.53;4.30;;;20.50;98.90;;;;;;5072965;28;20111;-78
2022/06/24 04:54:59;;;;;;;6.93;3.65;;;20.60;99.40;;;;;;5095818;22;20201;-73
2022/06/24 04:57:24;;;;;;;5.43;4.45;;;20.70;98.50;;;;;;5081335;28;20059;-73
2022/06/24 04:59:50;;;;;;;4.25;3.65;;;20.80;97.30;;;;;;5089813;28;20040;-74
2022/06/24 05:02:15;;;;;;;4.05;3.55;;;20.90;97.60;;;;;;5089911;28;20123;-74
2022/06/24 05:04:41;;;;;;;4.78;3.67;;;20.90;97.80;;;;;;5087880;28;20047;-73
2022/06/24 05:07:07;;;;;;;4.38;3.90;;;20.90;97.70;;;;;;5072910;28;20698;-74
2022/06/24 05:09:33;;;;;;;5.68;4.32;;;21.00;98.10;;;;;;5089731;28;20050;-75
2022/06/24 05:11:59;;;;;;;5.00;3.83;;;21.10;98.90;;;;;;5089673;28;20040;-74
2022/06/24 05:14:25;;;;;;;4.82;3.78;;;21.20;99.00;;;;;;5072764;28;20043;-74
2022/06/24 05:16:50;;;;;;;4.22;3.83;;;21.30;98.30;;;;;;5068568;28;20152;-74
2022/06/24 05:19:16;;;;;;;4.82;4.13;;;21.40;97.10;;;;;;5051916;28;20516;-74
2022/06/24 05:21:41;;;;;;;6.38;4.63;;;21.50;96.80;;;;;;5068504;28;20044;-72
2022/06/24 05:24:08;;;;;;;6.20;4.57;;;21.60;96.80;;;;;;5072769;28;20072;-72
2022/06/24 05:26:33;;;;;;;5.32;4.82;;;21.70;97.00;;;;;;5081613;28;20040;-74
2022/06/24 05:28:59;;;;;;;5.45;5.05;;;21.70;97.30;;;;;;5083738;28;20047;-72
2022/06/24 05:31:25;;;;;;;6.18;5.68;;;21.90;97.10;;;;;;5074707;28;20496;-74
2022/06/24 05:33:50;;;;;;;8.32;7.50;;;22.00;97.80;;;;;;5068683;28;20047;-75
2022/06/24 05:36:16;;;;;;;9.70;8.68;;;22.10;98.70;;;;;;5068174;28;20367;-75
2022/06/24 05:38:42;;;;;;;10.63;8.57;;;22.10;99.90;;;;;;5083953;28;20504;-74
2022/06/24 05:41:08;;;;;;;10.88;8.82;;;22.10;99.40;;;;;;5090781;28;20044;-74
2022/06/24 05:43:34;;;;;;;9.93;9.05;;;22.10;99.90;;;;;;5089443;28;20051;-74
2022/06/24 05:45:59;;;;;;;9.50;8.60;;;22.00;99.90;;;;;;5071670;28;20041;-74
2022/06/24 05:48:25;;;;;;;9.88;8.88;;;22.00;99.90;;;;;;5089035;28;20036;-75
2022/06/24 05:50:51;;;;;;;10.57;9.48;;;22.00;99.90;;;;;;5090881;28;20481;-75
2022/06/24 05:56:01;;;;;;;10.35;9.32;;;21.90;99.90;;;;;;5096279;28;20047;-73
2022/06/24 05:58:28;;;;;;;12.77;9.10;;;21.80;99.90;;;;;;5079439;28;20122;-73
2022/06/24 06:00:57;;;;;;;12.23;10.50;;;21.70;99.90;;;;;;5073190;28;20141;-73
2022/06/24 06:03:24;;;;;;;26.65;14.98;;;21.60;99.90;;;;;;5092558;28;20122;-77
2022/06/24 06:05:50;;;;;;;19.02;13.93;;;21.50;99.90;;;;;;5095954;28;20119;-76
2022/06/24 06:08:16;;;;;;;22.38;13.82;;;21.40;99.90;;;;;;5096382;28;20127;-75
2022/06/24 06:10:43;;;;;;;21.20;14.88;;;21.30;99.90;;;;;;5079160;28;20063;-75
2022/06/24 06:13:09;;;;;;;17.90;13.60;;;21.20;99.90;;;;;;5096087;28;20048;-75
2022/06/24 06:15:35;;;;;;;17.90;13.95;;;21.10;99.90;;;;;;5093875;28;20420;-75
2022/06/24 06:18:01;;;;;;;15.40;13.13;;;21.00;99.90;;;;;;5083718;28;20040;-76
2022/06/24 06:20:27;;;;;;;18.27;13.18;;;21.00;99.90;;;;;;5076004;28;20156;-75
2022/06/24 06:22:53;;;;;;;14.90;12.77;;;21.00;99.90;;;;;;5092252;28;20048;-75
2022/06/24 06:25:19;;;;;;;12.30;11.00;;;21.00;99.90;;;;;;5076919;28;20044;-75
2022/06/24 06:27:44;;;;;;;14.60;12.57;;;21.00;99.90;;;;;;5087416;28;20074;-77
2022/06/24 06:30:11;;;;;;;16.50;13.45;;;21.00;99.90;;;;;;5075830;28;20064;-76
2022/06/24 06:32:37;;;;;;;17.23;12.32;;;20.90;99.90;;;;;;5088244;28;20169;-75
2022/06/24 06:35:03;;;;;;;15.00;11.70;;;20.90;99.90;;;;;;5075487;28;20127;-75
2022/06/24 06:37:29;;;;;;;15.55;12.68;;;20.90;99.90;;;;;;5068162;28;20047;-75
2022/06/24 06:39:54;;;;;;;17.00;12.00;;;21.00;99.90;;;;;;5090951;28;20043;-75
2022/06/24 06:42:20;;;;;;;16.10;12.40;;;21.00;99.90;;;;;;5072545;28;20064;-74
2022/06/24 06:44:45;;;;;;;14.40;11.77;;;21.10;99.90;;;;;;5081462;28;20032;-74
2022/06/24 06:47:11;;;;;;;13.23;10.98;;;21.20;99.90;;;;;;5091584;28;20039;-74
2022/06/24 06:49:37;;;;;;;15.77;11.10;;;21.20;99.90;;;;;;5087713;28;20051;-74
2022/06/24 06:52:02;;;;;;;15.88;12.45;;;21.30;99.90;;;;;;5074997;28;20675;-75
2022/06/24 06:54:29;;;;;;;13.07;11.05;;;21.40;99.90;;;;;;5075012;28;20189;-75
2022/06/24 06:56:56;;;;;;;13.88;11.02;;;21.50;99.90;;;;;;5094866;28;20044;-74
2022/06/24 06:59:21;;;;;;;14.55;10.32;;;21.50;99.90;;;;;;5076301;28;20051;-75
2022/06/24 07:01:47;;;;;;;10.30;9.25;;;21.40;99.90;;;;;;5091090;28;20042;-75
2022/06/24 07:04:13;;;;;;;12.00;10.75;;;21.40;99.90;;;;;;5093895;28;20036;-75
2022/06/24 07:06:38;;;;;;;12.32;9.80;;;21.30;99.90;;;;;;5085059;28;20529;-75
2022/06/24 07:09:04;;;;;;;11.82;9.52;;;21.30;99.90;;;;;;5072274;28;20507;-75
2022/06/24 07:11:29;;;;;;;10.70;8.60;;;21.30;99.90;;;;;;5092632;27;20149;-75
2022/06/24 07:13:55;;;;;;;10.50;8.70;;;21.30;99.90;;;;;;5090445;27;20479;-74
2022/06/24 07:16:21;;;;;;;11.27;8.60;;;21.20;99.90;;;;;;5085314;28;20051;-74
2022/06/24 07:18:47;;;;;;;8.88;8.13;;;21.20;99.90;;;;;;5085541;28;20484;-74
2022/06/24 07:21:13;;;;;;;8.50;7.18;;;21.20;99.90;;;;;;5092193;28;20054;-74
2022/06/24 07:23:39;;;;;;;7.75;6.82;;;21.20;99.90;;;;;;5076559;28;20040;-74
2022/06/24 07:26:05;;;;;;;9.20;7.00;;;21.20;99.90;;;;;;5081658;28;20097;-74
2022/06/24 07:28:33;;;;;;;8.52;7.22;;;21.20;99.90;;;;;;5087310;28;20043;-74
2022/06/24 07:30:58;;;;;;;7.10;6.18;;;21.10;99.90;;;;;;5077705;28;20047;-74
2022/06/24 07:33:24;;;;;;;6.75;6.05;;;21.20;99.90;;;;;;5085213;28;20088;-75
2022/06/24 07:35:50;;;;;;;7.43;6.68;;;21.20;99.90;;;;;;5080951;27;20035;-75
2022/06/24 07:38:16;;;;;;;7.93;7.10;;;21.10;99.90;;;;;;5081159;28;20085;-74
2022/06/24 07:40:42;;;;;;;8.02;6.75;;;21.20;99.90;;;;;;5075098;28;20090;-75
2022/06/24 07:43:07;;;;;;;9.20;7.35;;;21.20;99.90;;;;;;5093976;28;20070;-75
2022/06/24 07:45:33;;;;;;;8.68;7.80;;;21.10;99.90;;;;;;5091862;28;20042;-75
2022/06/24 07:47:59;;;;;;;8.30;7.50;;;21.10;99.90;;;;;;5061188;28;20031;-76
2022/06/24 07:50:25;;;;;;;8.75;7.90;;;21.10;99.90;;;;;;5075889;28;20040;-76
2022/06/24 07:52:51;;;;;;;8.15;7.35;;;21.10;99.90;;;;;;5087345;28;20035;-75
2022/06/24 07:58:01;;;;;;;8.43;7.72;;;21.10;99.90;;;;;;5089877;28;20373;-74
2022/06/24 08:00:27;;;;;;;8.63;7.82;;;21.10;99.90;;;;;;5090365;28;20047;-75
2022/06/24 08:02:52;;;;;;;7.45;6.68;;;21.10;99.90;;;;;;5061100;28;20031;-74
2022/06/24 08:05:18;;;;;;;8.25;7.30;;;21.20;99.90;;;;;;5093965;28;20085;-76
2022/06/24 08:07:44;;;;;;;8.27;7.50;;;21.20;99.90;;;;;;5087727;28;20546;-76
2022/06/24 08:10:09;;;;;;;8.52;7.72;;;21.30;99.90;;;;;;5079322;27;20109;-75
2022/06/24 08:12:35;;;;;;;7.85;7.15;;;21.30;99.90;;;;;;5093656;28;20121;-76
2022/06/24 08:15:01;;;;;;;7.63;6.53;;;21.40;99.90;;;;;;5092889;28;20031;-76
2022/06/24 08:17:26;;;;;;;6.72;6.18;;;21.50;99.90;;;;;;5093241;28;20039;-76
2022/06/24 08:19:52;;;;;;;7.28;6.55;;;21.50;99.90;;;;;;5088766;28;20479;-76
2022/06/24 08:22:19;;;;;;;8.05;6.40;;;21.50;99.90;;;;;;5086698;28;20089;-76
2022/06/24 08:24:44;;;;;;;7.40;6.20;;;21.60;99.90;;;;;;5082951;28;20075;-75
2022/06/24 08:27:11;;;;;;;6.13;5.53;;;21.70;99.90;;;;;;5072663;28;20109;-76
2022/06/24 08:29:36;;;;;;;5.32;4.82;;;21.80;99.90;;;;;;5076655;28;20036;-75
2022/06/24 08:32:02;;;;;;;6.28;5.68;;;21.80;99.90;;;;;;5085606;28;20093;-75
2022/06/24 08:34:27;;;;;;;5.68;5.15;;;21.90;99.90;;;;;;5067105;28;20123;-76
2022/06/24 08:36:53;;;;;;;5.85;5.30;;;22.00;99.90;;;;;;5067497;28;20466;-76
2022/06/24 08:39:18;;;;;;;5.22;4.72;;;22.00;99.90;;;;;;5083363;28;20039;-76
2022/06/24 08:41:46;;;;;;;6.50;5.10;;;22.10;99.90;;;;;;5089808;28;20069;-76
2022/06/24 08:44:13;;;;;;;5.38;4.90;;;22.20;99.90;;;;;;5088553;28;20119;-76
2022/06/24 08:46:42;;;;;;;4.30;3.92;;;22.30;99.90;;;;;;5080189;28;20040;-76
2022/06/24 08:49:07;;;;;;;5.65;4.30;;;22.30;99.90;;;;;;5082991;28;20046;-76
2022/06/24 08:51:34;;;;;;;4.97;4.47;;;22.30;99.90;;;;;;5091763;28;20047;-77
2022/06/24 08:54:02;;;;;;;4.90;4.45;;;22.30;99.90;;;;;;5078495;28;20046;-76
2022/06/24 08:56:28;;;;;;;5.65;5.00;;;22.20;99.90;;;;;;5091747;28;20061;-77
2022/06/24 08:58:55;;;;;;;5.10;4.70;;;22.20;99.90;;;;;;5092381;28;20456;-77
2022/06/24 09:01:20;;;;;;;4.95;4.50;;;22.10;99.90;;;;;;5084895;28;20071;-75
2022/06/24 09:03:47;;;;;;;5.75;5.18;;;22.00;99.90;;;;;;5092532;28;20070;-75
2022/06/24 09:06:17;;;;;;;6.60;5.88;;;22.00;99.90;;;;;;5070801;28;20379;-75
2022/06/24 09:08:48;;;;;;;6.50;5.90;;;21.90;99.90;;;;;;5086156;28;20035;-75
2022/06/24 09:11:14;;;;;;;8.65;6.20;;;21.70;99.90;;;;;;5073429;28;20078;-75
2022/06/24 09:13:42;;;;;;;7.80;7.00;;;21.70;99.90;;;;;;5076043;28;20064;-75
2022/06/24 09:16:09;;;;;;;7.00;6.30;;;21.70;99.90;;;;;;5083935;28;20365;-76
2022/06/24 09:18:35;;;;;;;7.40;6.70;;;21.60;99.90;;;;;;5089653;28;20048;-75
2022/06/24 09:21:00;;;;;;;6.88;6.28;;;21.60;99.90;;;;;;5078653;28;20071;-75
2022/06/24 09:23:26;;;;;;;7.78;7.07;;;21.60;99.90;;;;;;5088950;28;20369;-76
2022/06/24 09:26:02;;;;;;;7.70;7.00;;;21.60;99.90;;;;;;5076897;28;20047;-76
2022/06/24 09:28:32;;;;;;;7.55;6.90;;;21.60;99.90;;;;;;5084673;28;20036;-75
2022/06/24 09:31:05;;;;;;;8.80;7.43;;;21.60;99.90;;;;;;5074173;28;20044;-76
2022/06/24 09:33:38;;;;;;;8.18;7.45;;;21.50;99.90;;;;;;5079267;28;20440;-76
2022/06/24 09:36:07;;;;;;;6.82;6.28;;;21.50;99.90;;;;;;5088602;28;20364;-75
2022/06/24 09:38:50;;;;;;;6.75;6.15;;;21.50;99.90;;;;;;5076607;28;20056;-75
2022/06/24 09:41:16;;;;;;;8.65;7.15;;;21.50;99.90;;;;;;5060038;28;20548;-75
2022/06/24 09:43:42;;;;;;;7.55;6.95;;;21.50;99.90;;;;;;5099334;28;20119;-75
2022/06/24 09:46:20;;;;;;;7.43;6.60;;;21.50;99.90;;;;;;5092250;28;20127;-74
2022/06/24 09:48:45;;;;;;;6.90;6.20;;;21.50;99.90;;;;;;5083684;28;20031;-74
2022/06/24 09:51:11;;;;;;;7.95;7.15;;;21.50;99.90;;;;;;5095684;28;20585;-75
2022/06/24 09:53:41;;;;;;;6.82;6.10;;;21.50;99.90;;;;;;5093272;28;20122;-75
2022/06/24 09:56:09;;;;;;;6.55;5.65;;;21.40;99.90;;;;;;5091476;28;20044;-75
2022/06/24 09:58:39;;;;;;;6.78;6.07;;;21.40;99.90;;;;;;5089366;28;20036;-74
2022/06/24 10:01:05;;;;;;;6.43;5.75;;;21.30;99.90;;;;;;5074253;28;20062;-76
2022/06/24 10:03:33;;;;;;;6.97;5.82;;;21.30;99.90;;;;;;5087147;28;20039;-75
2022/06/24 10:06:05;;;;;;;5.25;4.43;;;21.20;99.90;;;;;;5094140;28;20412;-74
2022/06/24 10:08:34;;;;;;;6.22;5.63;;;21.10;99.90;;;;;;5083083;28;20039;-75
2022/06/24 10:11:04;;;;;;;7.35;5.55;;;21.00;99.90;;;;;;5093645;28;20067;-75
2022/06/24 10:13:34;;;;;;;9.15;5.70;;;20.90;99.90;;;;;;5068907;28;20398;-75
2022/06/24 10:16:08;;;;;;;8.02;6.57;;;20.80;99.90;;;;;;5089719;28;20118;-75
2022/06/24 10:18:40;;;;;;;8.52;5.65;;;20.70;99.90;;;;;;5081205;27;20078;-74
2022/06/24 10:21:08;;;;;;;7.10;5.70;;;20.60;99.90;;;;;;5117778;27;20396;-73
2022/06/24 10:23:40;;;;;;;7.25;5.80;;;20.50;99.90;;;;;;5085095;28;20491;-73
2022/06/24 10:26:11;;;;;;;7.75;6.93;;;20.40;99.90;;;;;;5083220;28;20040;-73
2022/06/24 10:28:59;;;;;;;8.48;7.28;;;20.20;99.90;;;;;;5070768;28;20040;-74
2022/06/24 10:31:49;;;;;;;9.05;7.65;;;20.20;99.90;;;;;;5091017;28;20058;-73
2022/06/24 10:34:30;;;;;;;7.95;6.25;;;20.10;99.90;;;;;;5084916;28;20036;-74
2022/06/24 10:37:06;;;;;;;7.55;6.30;;;20.00;99.90;;;;;;5088101;27;20039;-74
2022/06/24 10:39:51;;;;;;;6.63;6.05;;;20.00;99.90;;;;;;5079462;28;20039;-71
2022/06/24 10:42:26;;;;;;;7.03;6.18;;;19.90;99.90;;;;;;5110387;28;20035;-71
2022/06/24 10:45:10;;;;;;;6.65;5.90;;;19.90;99.90;;;;;;5091264;28;20072;-71
2022/06/24 10:47:35;;;;;;;6.47;3.80;;;19.90;99.90;;;;;;5107773;27;20039;-71
2022/06/24 10:50:02;;;;;;;3.58;3.22;;;19.80;99.90;;;;;;5075192;28;20121;-71
2022/06/24 10:52:38;;;;;;;4.30;3.40;;;19.80;99.90;;;;;;5082750;28;20048;-71
2022/06/24 10:55:16;;;;;;;4.88;2.75;;;19.70;99.90;;;;;;5091076;28;20081;-71
2022/06/24 10:57:46;;;;;;;3.70;2.88;;;19.70;99.90;;;;;;5094745;28;20093;-72
2022/06/24 11:00:23;;;;;;;4.78;2.70;;;19.50;99.90;;;;;;5061940;28;20052;-72
2022/06/24 11:03:04;;;;;;;5.03;2.75;;;19.50;99.90;;;;;;5093252;27;20044;-72
2022/06/24 11:05:35;;;;;;;2.88;2.60;;;19.40;99.90;;;;;;5088085;28;20035;-72
2022/06/24 11:08:02;;;;;;;3.42;2.78;;;19.40;99.90;;;;;;5089742;28;20046;-72
2022/06/24 11:10:30;;;;;;;8.85;2.70;;;19.30;99.90;;;;;;5092291;28;20502;-73
2022/06/24 11:13:00;;;;;;;2.72;2.40;;;19.20;99.90;;;;;;5076018;28;20062;-72
2022/06/24 11:15:33;;;;;;;3.33;2.10;;;19.10;99.90;;;;;;5106703;28;20043;-72
2022/06/24 11:18:08;;;;;;;3.95;2.67;;;19.10;99.90;;;;;;5089292;28;20039;-72
2022/06/24 11:20:42;;;;;;;3.03;2.83;;;19.00;99.90;;;;;;5086578;28;20389;-73
2022/06/24 11:23:09;;;;;;;3.65;2.58;;;19.00;99.90;;;;;;5072530;28;20078;-73
2022/06/24 11:25:37;;;;;;;2.50;2.30;;;19.10;99.90;;;;;;5091419;28;20038;-73
2022/06/24 11:28:03;;;;;;;3.72;2.90;;;19.00;99.90;;;;;;5111195;28;20114;-74
2022/06/24 11:30:29;;;;;;;4.40;2.55;;;19.10;99.90;;;;;;5111058;28;20564;-73
2022/06/24 11:32:56;;;;;;;4.30;2.60;;;19.10;99.90;;;;;;5076059;28;20149;-73
2022/06/24 11:35:23;;;;;;;2.97;2.40;;;19.10;99.90;;;;;;5091428;28;20386;-72
2022/06/24 11:37:49;;;;;;;3.47;2.30;;;19.10;99.90;;;;;;5088711;28;20058;-73
2022/06/24 11:40:34;;;;;;;3.00;2.70;;;19.10;99.90;;;;;;5092090;28;20043;-73
2022/06/24 11:43:11;;;;;;;4.57;2.42;;;19.30;99.90;;;;;;5091710;28;20036;-73
2022/06/24 11:45:42;;;;;;;3.15;2.25;;;19.30;99.90;;;;;;5091207;28;20043;-73
2022/06/24 11:48:21;;;;;;;2.80;2.60;;;19.40;99.90;;;;;;5075089;28;20115;-73
2022/06/24 11:50:47;;;;;;;2.70;2.50;;;19.60;99.90;;;;;;5074589;28;20043;-73
2022/06/24 11:53:13;;;;;;;2.85;2.60;;;19.70;99.90;;;;;;5085881;28;20043;-72
2022/06/24 11:55:40;;;;;;;2.58;2.38;;;19.90;99.90;;;;;;5086455;27;20052;-72
2022/06/24 11:58:11;;;;;;;2.72;2.30;;;20.00;99.90;;;;;;5093208;28;20031;-72
2022/06/24 12:00:39;;;;;;;2.83;2.60;;;20.00;99.90;;;;;;5093388;28;20598;-73
2022/06/24 12:03:07;;;;;;;3.05;2.83;;;20.20;99.90;;;;;;5092708;28;20070;-73
2022/06/24 12:05:36;;;;;;;2.72;2.50;;;20.20;99.90;;;;;;5064269;28;20123;-73
2022/06/24 12:08:02;;;;;;;3.10;2.83;;;20.20;99.90;;;;;;5089047;28;20070;-73
2022/06/24 12:10:28;;;;;;;4.13;3.08;;;20.30;99.90;;;;;;5086078;28;20038;-73
2022/06/24 12:12:56;;;;;;;3.17;2.85;;;20.30;99.90;;;;;;5074836;28;20118;-73
2022/06/24 12:15:31;;;;;;;2.47;2.28;;;20.40;99.90;;;;;;5086665;28;20050;-74
2022/06/24 12:17:57;;;;;;;4.00;3.20;;;20.40;99.90;;;;;;5084443;27;20464;-75
2022/06/24 12:20:25;;;;;;;2.80;2.50;;;20.50;99.90;;;;;;5091562;28;20028;-75
2022/06/24 12:23:13;;;;;;;4.82;2.97;;;20.60;99.90;;;;;;5090762;28;20100;-76
2022/06/24 12:25:44;;;;;;;3.15;2.95;;;20.80;99.90;;;;;;5083863;28;20533;-77
2022/06/24 12:28:22;;;;;;;4.25;2.85;;;20.80;99.90;;;;;;5077493;28;20084;-76
2022/06/24 12:30:58;;;;;;;3.22;2.83;;;21.10;99.90;;;;;;5081060;28;20043;-75
2022/06/24 12:33:24;;;;;;;3.35;3.05;;;21.40;99.90;;;;;;5092046;28;20487;-75
2022/06/24 12:36:09;;;;;;;3.60;3.28;;;21.80;99.90;;;;;;5074755;28;20122;-75
2022/06/24 12:38:40;;;;;;;4.60;3.85;;;22.20;99.90;;;;;;5068828;28;20122;-75
2022/06/24 12:41:11;;;;;;;3.75;3.45;;;22.20;99.90;;;;;;5087030;28;20044;-76
2022/06/24 12:43:50;;;;;;;4.85;4.45;;;22.40;99.90;;;;;;5088727;28;20558;-76
2022/06/24 12:46:16;;;;;;;6.25;5.72;;;22.60;99.90;;;;;;5092014;28;20043;-77
2022/06/24 12:51:27;;;;;;;6.72;6.03;;;22.50;99.90;;;;;;5093301;28;20051;-76
2022/06/24 12:53:54;;;;;;;6.95;6.35;;;22.70;99.90;;;;;;5093163;28;20097;-77
2022/06/24 12:56:22;;;;;;;6.10;5.60;;;22.60;99.90;;;;;;5093378;28;20142;-76
2022/06/24 12:58:52;;;;;;;10.00;7.82;;;22.80;99.90;;;;;;5089705;28;20726;-77